METAR Data
IDs: Format: Raw Decoded Include TAF

Data at: 2314 UTC 23 Oct 2019

Region: TOP
KATL 232252Z 05005KT 10SM CLR 19/01 A3016 RMK AO2 SLP212 T01890011

KBOS 232254Z 28011KT 10SM FEW045 17/02 A2996 RMK AO2 SLP146 T01720017

KBWI 232254Z 28003KT 10SM CLR 14/03 A3013 RMK AO2 SLP202 T01440033

KCLE 232251Z 20007KT 10SM CLR 14/00 A3008 RMK AO2 SLP186 T01390000

KCLT 232252Z VRB06KT 10SM FEW250 18/02 A3018 RMK AO2 SLP218 T01780022

KCVG 232252Z 19007KT 10SM SCT250 14/00 A3011 RMK AO2 SLP197 T01390000

KDCA 232252Z 29005KT 10SM FEW075 16/03 A3014 RMK AO2 SLP207 T01610028 $

KDEN 232300Z 36017G29KT 5SM -SN BKN023 BKN034 OVC049 04/M01 A3018 RMK AO2 PK WND 35026/2300 RAE2259 PRESRR P0000 T00391006

KDFW 232253Z 17013G21KT 10SM FEW065 26/11 A2989 RMK AO2 PK WND 18028/2207 SLP116 T02610111

KDTW 232253Z 21009KT 10SM FEW065 SCT120 14/02 A3000 RMK AO2 SLP160 T01390017

KEWR 232251Z 26007KT 10SM CLR 16/02 A3006 RMK AO2 SLP178 T01610017 $

KFLL 232253Z 09009KT 10SM FEW012 FEW035 FEW200 SCT250 28/23 A3000 RMK AO2 SLP157 T02830233

KIAD 232252Z 00000KT 10SM CLR 15/00 A3014 RMK AO2 SLP207 T01500000

KIAH 232253Z 13016G23KT 10SM FEW060 23/12 A3003 RMK AO2 SLP169 T02330122

KJFK 232251Z 26013KT 10SM FEW250 16/03 A3006 RMK AO2 SLP179 T01610033

KLAS 232256Z 08008KT 10SM FEW250 28/M05 A2997 RMK AO2 SLP131 T02831050

KLAX 232253Z 27010KT 10SM CLR 25/15 A2984 RMK AO2 SLP103 T02500150

KLGA 232251Z 27010KT 10SM CLR 17/00 A3005 RMK AO2 SLP174 T01670000

KMCO 232253Z 04011KT 10SM FEW035 SCT250 24/16 A3008 RMK AO2 SLP183 T02440161

KMDW 232253Z 19005KT 10SM FEW075 BKN100 BKN250 15/03 A2989 RMK AO2 SLP124 T01500028

KMEM 232254Z 18006KT 10SM FEW250 19/03 A3011 RMK AO2 SLP195 T01940033

KMIA 232253Z 08008KT 050V110 10SM FEW035 FEW050 BKN250 29/22 A2999 RMK AO2 SLP156 T02940217

KMSP 232253Z 31005KT 10SM OVC035 07/00 A2998 RMK AO2 SLP161 T00670000

KORD 232251Z 19005KT 10SM SCT095 BKN120 OVC250 13/03 A2988 RMK AO2 SLP121 T01330028

KPDX 232253Z 31004KT 10SM SCT250 15/08 A3042 RMK AO2 SLP302 T01500078

KPHL 232254Z 26008KT 10SM CLR 16/02 A3011 RMK AO2 SLP195 T01610017 $

KPHX 232251Z 28004KT 10SM FEW030 FEW250 32/M02 A2981 RMK AO2 SLP078 FU FEW030 DSNT NE T03221017

KPIT 232251Z 22004KT 10SM CLR 12/M01 A3013 RMK AO2 SLP213 T01221011

KSAN 232251Z 21006KT 10SM CLR 28/07 A2984 RMK AO2 SLP105 T02780067

KSEA 232253Z 32007KT 10SM FEW025 FEW160 BKN250 13/07 A3047 RMK AO2 SLP327 T01330067 $

KSFO 232256Z 29009KT 10SM FEW200 28/08 A2991 RMK AO2 SLP130 T02830078

KSLC 232254Z 33011G17KT 10SM BKN090 BKN110 BKN200 13/M04 A3022 RMK AO2 SLP215 T01281044

KSTL 232251Z 18012G20KT 10SM FEW110 SCT250 22/02 A2992 RMK AO2 SLP130 T02170022

KTPA 232253Z 04004KT 10SM FEW045 FEW160 BKN250 27/17 A3005 RMK AO2 SLP174 CB DSNT SE-S T02720172